This is the latest recevied weather packets stored in our database for station/object HK5VD-30. If no packets are shown the sender has not sent any weather packets the latest 10 day(s).
| Time | Temp. | Humidity | Pressure | Rain* | Wind** | Luminosity | Snow |
|---|---|---|---|---|---|---|---|
| 1788346578 | 22.22° C | 83% | 1015 hPa | 0 mm | - | - | - |
| 1788344777 | 21.67° C | 83% | 1015 hPa | 0 mm | - | - | - |
| 1788342976 | 21.11° C | 83% | 1015 hPa | 0 mm | - | - | - |
| 1788341175 | 20.56° C | 83% | 1014 hPa | 0 mm | - | - | - |
| 1788339374 | 22.22° C | 83% | 1014 hPa | 0 mm | - | - | - |
| 1788337573 | 21.67° C | 83% | 1014 hPa | 0 mm | - | - | - |
| 1788335772 | 21.11° C | 83% | 1014 hPa | 0 mm | - | - | - |
| 1788333970 | 20.56° C | 83% | 1015 hPa | 0 mm | - | - | - |
| 1788332169 | 22.78° C | 73% | 1015 hPa | 0 mm | - | - | - |
| 1788330368 | 22.78° C | 73% | 1015 hPa | 0 mm | - | - | - |
| 1788328567 | 22.22° C | 73% | 1015 hPa | 0 mm | - | - | - |
| 1788294347 | 32.78° C | 40% | 1009 hPa | 0 mm | - | - | - |
| 1788288944 | 31.67° C | 58% | 1010 hPa | 0 mm | - | - | - |
| 1788287143 | 31.11° C | 58% | 1011 hPa | 0 mm | - | - | - |
| 1788283541 | 30° C | 58% | 1013 hPa | 0 mm | - | - | - |
| 1788279938 | 28.89° C | 58% | 1014 hPa | 0 mm | - | - | - |
| 1788276336 | 23.33° C | 88% | 1015 hPa | 0 mm | - | - | - |
| 1788272734 | 22.22° C | 88% | 1016 hPa | 0 mm | - | - | - |
| 1788270933 | 21.67° C | 88% | 1016 hPa | 0 mm | - | - | - |
| 1788269132 | 21.11° C | 88% | 1016 hPa | 0 mm | - | - | - |
| 1788267331 | 20.56° C | 88% | 1016 hPa | 0 mm | - | - | - |
| 1788265530 | 20° C | 88% | 1016 hPa | 0 mm | - | - | - |
| 1788263729 | 19.44° C | 88% | 1016 hPa | 0 mm | - | - | - |
| 1788261928 | 18.89° C | 88% | 1015 hPa | 0 mm | - | - | - |
| 1788260126 | 22.22° C | 83% | 1015 hPa | 0 mm | - | - | - |
* Rain latest hour (hover to see other rain measurements)
** Current wind speed in m/s (hover to see current wind gust speed)